Ana Sayfa
METAR-TAF:

METAR-TAF

Havaalanları :

Osorno, Şili

Enlem: 40-36-41S, Boylam: 73-03-38W, yükseklik: 57 m

Güncel hava durumu gözlemi

Rapor saat 14:00 UTC de 48 dakika önce yapıldı.
Rüzgar kuzey/kuzeydoğudan 3 kt
Sıcaklık 15°C
Nem 82%
Basınç 1018 hPa
Görüş mesafesi 10 km veya daha fazla
1500 m altında bulut yok ve kümülonimbus yok

METAR: SCJO 141400Z 02003KT CAVOK 15/12 Q1018

Saat: 11:48 (14:48 UTC)

Tahmin

Rapor saat 10:12 UTC de 4 saat ve 36 dakika önce yapıldı.
Ayın 14'si saat 12 UTC'den ayın 14'si saat 24 UTC'ye kadar geçerli Tahmin
Rüzgar kuzeydan 5 kt
Görüş mesafesi 10 km veya daha fazla
3000 ft yükseklikte az bulutlu
9000 ft yükseklikte parçalı çok bulutlu
Dönüşüyor
ayın 14'si saat 21 UTC'den ayın 14'si saat 23 UTC'ye kadar
Rüzgar kuzeydan 10 kt
4000 ft yükseklikte parçalı bulutlu

TAF: SCJO 141012Z 1412/1424 36005KT 9999 FEW030 BKN090 TN10/1412Z TX21/1419Z BECMG 1421/1423 35010KT SCT040

4.000'den fazla havaalanı için hava durumu gözlemleri ve tahminleri (METAR ve TAF raporları).

Kullanılabilir istasyonlar harita üzerinde sarı ve kırmızı noktalarla gösterilir.

İstasyonun adını görmek için fareyi noktanın üzerinde gezdirin.

Sonrasında hava gözlem ve tahminlerini görmek için tıklayın.

Haritayı değiştirmek için: yaklaştırmak için siyah artı işaretli yeşil düğmeye ve uzaklaştırmak için de eksi işaretli düğmeye hızla tıklayın; bitişik haritalar için yeşil okları kullanın.


METAR-TAF: